Aérodrome :
LOGIN :

S'inscrire | Disclaimer

   EN    FR    IT 

 










Légende :    VFR   VFR Marginal   IFR   IFR Intensif   IFR Très Intensif
Visi : 
Plafond : 
>= 8 km
>= 3000ft
5 à 8 km
1000 à 3000 ft
1500m à 5 km
500 à 1000 ft
800 à 1500m
200 à 500 ft
< 800m
< 200 ft
Symboles :   Orages  Brouillard  Fortes neiges  Fortes précipitations  Vent > 20 kt
SIGMETs :   Divers  Orages  Givrage  Turbulence  Onde Orograph.  Cendres Volcan.







- Altitude de l'aérodrome : 464 ft
- Code IATA : EVX
- Voir les cartes d'approche


LFOE - Evreux

DERNIER METAR :
  • 202200Z AUTO 00000KT CAVOK 13/08 Q1014

METARs EXPIRÉS :
  • 202130Z AUTO 00000KT CAVOK 14/08 Q1015
  • 202100Z AUTO 00000KT CAVOK 15/08 Q1015
  • 202030Z AUTO 34002KT CAVOK 15/08 Q1015
  • 202000Z AUTO VRB03KT CAVOK 17/08 Q1014
  • 201930Z AUTO 30005KT CAVOK 17/08 Q1014

TAF TAF LFOE
Valide du 20 à 21h jusqu'au 21 à 21h UTC


202000Z 2021/2121 VRB03KT CAVOK
BECMG 2103/2106 17010KT
BECMG 2106/2109 21012G22KT
Pas de NOTAMs connus pour ce terrain.



MET'MAP, la Météo Aéronautique d'un coup d'oeil ! - Copyright ORBIFLY Décembre 2007 - Disclaimer

ORBIFLY MET'MAP TEAM :

Programmation & Développement : Alexandra Zaïnal
Conception & Développement : Baudouin d'Aumeries
Co-Programmation & Développement : Marc-Olivier Méhu
Soutien technique & logistique : Manuel Goepfert

Contact : metmap@orbifly.com




SOURCES & CREDITS :

   NOAA